Time,TemperatureF,DewpointF,PressureIn,WindDirection,WindDirectionDegrees,WindSpeedMPH,WindSpeedGustMPH,Humidity,HourlyPrecipIn,Conditions,Clouds,dailyrainin,SoftwareType,DateUTC
2013-06-25 00:00:00,69.3,64.6,30.01,SSW,213,0.0,0.0,85,0.00,,,0.00,VWS V14.01,2013-06-25 04:00:00,
2013-06-25 00:01:00,69.3,64.6,30.01,SSW,213,0.0,0.0,85,0.00,,,0.00,VWS V14.01,2013-06-25 04:01:00,
2013-06-25 00:02:00,69.3,64.6,30.01,SSW,213,0.0,0.0,85,0.00,,,0.00,VWS V14.01,2013-06-25 04:02:00,
2013-06-25 00:05:00,69.3,64.6,30.01,SSW,213,0.0,0.0,85,0.00,,,0.00,VWS V14.01,2013-06-25 04:05:00,
2013-06-25 00:10:00,69.1,64.4,30.01,SSW,213,0.0,0.0,85,0.00,,,0.00,VWS V14.01,2013-06-25 04:10:00,
2013-06-25 00:15:00,69.1,64.4,30.01,SW,226,0.0,0.0,85,0.00,,,0.00,VWS V14.01,2013-06-25 04:15:00,
2013-06-25 00:20:00,69.1,64.4,30.01,WSW,254,0.0,3.1,85,0.00,,,0.00,VWS V14.01,2013-06-25 04:20:00,
2013-06-25 00:25:00,69.3,64.2,30.01,West,271,0.0,3.6,84,0.00,,,0.00,VWS V14.01,2013-06-25 04:25:00,
2013-06-25 00:30:00,69.6,64.2,30.01,West,266,6.3,6.3,83,0.00,,,0.00,VWS V14.01,2013-06-25 04:30:00,
2013-06-25 00:35:00,69.8,63.7,30.01,West,262,3.1,4.0,81,0.00,,,0.00,VWS V14.01,2013-06-25 04:35:00,
2013-06-25 00:40:00,69.8,63.7,30.01,West,262,2.7,3.6,81,0.00,,,0.00,VWS V14.01,2013-06-25 04:40:00,
2013-06-25 00:45:00,70.0,63.5,30.01,WSW,253,3.1,3.1,80,0.00,,,0.00,VWS V14.01,2013-06-25 04:45:00,
2013-06-25 00:50:00,70.0,63.5,30.01,WSW,238,4.9,4.9,80,0.00,,,0.00,VWS V14.01,2013-06-25 04:50:00,
2013-06-25 00:55:00,70.2,63.3,30.01,West,263,3.1,3.1,79,0.00,,,0.00,VWS V14.01,2013-06-25 04:55:00,
2013-06-25 01:00:00,70.3,63.5,30.01,SW,234,0.0,2.2,79,0.00,,,0.00,VWS V14.01,2013-06-25 05:00:00,
2013-06-25 01:05:00,70.3,63.2,30.01,West,263,2.7,4.0,78,0.00,,,0.00,VWS V14.01,2013-06-25 05:05:00,
2013-06-25 01:10:00,70.2,63.0,30.01,West,267,4.0,4.0,78,0.00,,,0.00,VWS V14.01,2013-06-25 05:10:00,
2013-06-25 01:15:00,70.2,63.0,30.01,WSW,253,2.2,3.6,78,0.00,,,0.00,VWS V14.01,2013-06-25 05:15:00,
2013-06-25 01:20:00,70.2,63.0,30.01,WSW,258,2.7,5.4,78,0.00,,,0.00,VWS V14.01,2013-06-25 05:20:00,
2013-06-25 01:25:00,70.2,63.0,30.01,WSW,257,3.1,3.6,78,0.00,,,0.00,VWS V14.01,2013-06-25 05:25:00,
2013-06-25 01:30:00,70.2,63.0,30.01,West,266,2.7,3.1,78,0.00,,,0.00,VWS V14.01,2013-06-25 05:30:00,
2013-06-25 01:35:00,70.2,63.0,29.98,WSW,258,0.0,0.0,78,0.00,,,0.00,VWS V14.01,2013-06-25 05:35:00,
2013-06-25 01:40:00,70.2,63.0,29.98,WSW,251,3.1,3.1,78,0.00,,,0.00,VWS V14.01,2013-06-25 05:40:00,
2013-06-25 01:45:00,70.2,63.0,29.98,West,263,3.1,4.0,78,0.00,,,0.00,VWS V14.01,2013-06-25 05:45:00,
2013-06-25 01:50:00,70.2,63.0,29.98,West,278,5.8,5.8,78,0.00,,,0.00,VWS V14.01,2013-06-25 05:50:00,
2013-06-25 01:55:00,70.2,63.0,29.98,WSW,256,2.2,2.7,78,0.00,,,0.00,VWS V14.01,2013-06-25 05:55:00,
2013-06-25 02:00:00,70.2,63.0,29.98,WSW,249,0.0,3.1,78,0.00,,,0.00,VWS V14.01,2013-06-25 06:00:00,
2013-06-25 02:05:00,70.2,63.0,29.98,WSW,243,4.9,4.9,78,0.00,,,0.00,VWS V14.01,2013-06-25 06:05:00,
2013-06-25 02:10:00,70.0,62.8,29.98,West,268,0.0,4.9,78,0.00,,,0.00,VWS V14.01,2013-06-25 06:10:00,
2013-06-25 02:15:00,70.0,62.8,29.98,West,265,4.0,4.0,78,0.00,,,0.00,VWS V14.01,2013-06-25 06:15:00,
2013-06-25 02:20:00,69.8,62.6,29.98,WSW,258,2.7,2.7,78,0.00,,,0.00,VWS V14.01,2013-06-25 06:20:00,
2013-06-25 02:25:00,69.8,63.0,29.98,West,262,2.7,2.7,79,0.00,,,0.00,VWS V14.01,2013-06-25 06:25:00,
2013-06-25 02:30:00,69.8,63.0,29.98,West,272,0.0,0.0,79,0.00,,,0.00,VWS V14.01,2013-06-25 06:30:00,
2013-06-25 02:35:00,69.8,63.0,29.98,West,273,4.0,5.8,79,0.00,,,0.00,VWS V14.01,2013-06-25 06:35:00,
2013-06-25 02:40:00,69.8,63.0,29.98,West,268,0.0,2.2,79,0.00,,,0.00,VWS V14.01,2013-06-25 06:40:00,
2013-06-25 02:45:00,69.8,63.0,29.98,West,267,4.0,4.9,79,0.00,,,0.00,VWS V14.01,2013-06-25 06:45:00,
2013-06-25 02:50:00,69.6,63.2,29.98,West,263,2.7,4.0,80,0.00,,,0.00,VWS V14.01,2013-06-25 06:50:00,
2013-06-25 02:55:00,69.4,63.0,29.98,West,262,3.6,4.0,80,0.00,,,0.00,VWS V14.01,2013-06-25 06:55:00,
2013-06-25 03:00:00,69.4,63.0,29.98,West,260,2.7,2.7,80,0.00,,,0.00,VWS V14.01,2013-06-25 07:00:00,
2013-06-25 03:05:00,69.3,62.8,29.98,West,279,0.0,2.7,80,0.00,,,0.00,VWS V14.01,2013-06-25 07:05:00,
2013-06-25 03:10:00,69.1,63.0,29.98,West,271,0.0,2.2,81,0.00,,,0.00,VWS V14.01,2013-06-25 07:10:00,
2013-06-25 03:15:00,69.1,63.0,29.98,West,269,0.0,2.7,81,0.00,,,0.00,VWS V14.01,2013-06-25 07:15:00,
2013-06-25 03:20:00,69.1,63.0,29.98,West,262,2.2,3.6,81,0.00,,,0.00,VWS V14.01,2013-06-25 07:20:00,
2013-06-25 03:25:00,68.9,62.8,29.98,West,259,0.0,2.2,81,0.00,,,0.00,VWS V14.01,2013-06-25 07:25:00,
2013-06-25 03:30:00,69.1,63.4,29.98,West,262,4.9,4.9,82,0.00,,,0.00,VWS V14.01,2013-06-25 07:30:00,
2013-06-25 03:35:00,69.1,63.4,29.98,West,270,2.7,2.7,82,0.00,,,0.00,VWS V14.01,2013-06-25 07:35:00,
2013-06-25 03:40:00,69.1,63.4,29.98,West,266,3.1,4.9,82,0.00,,,0.00,VWS V14.01,2013-06-25 07:40:00,
2013-06-25 03:45:00,69.1,63.4,29.98,West,263,2.2,3.6,82,0.00,,,0.00,VWS V14.01,2013-06-25 07:45:00,
2013-06-25 03:50:00,69.1,63.4,29.98,West,264,0.0,4.0,82,0.00,,,0.00,VWS V14.01,2013-06-25 07:50:00,
2013-06-25 03:55:00,69.1,63.4,29.98,WSW,257,3.6,3.6,82,0.00,,,0.00,VWS V14.01,2013-06-25 07:55:00,
2013-06-25 04:00:00,69.1,63.4,29.98,West,261,2.2,2.2,82,0.00,,,0.00,VWS V14.01,2013-06-25 08:00:00,
2013-06-25 04:05:00,69.1,63.4,29.95,West,270,0.0,2.7,82,0.00,,,0.00,VWS V14.01,2013-06-25 08:05:00,
2013-06-25 04:10:00,69.1,63.4,29.95,West,266,0.0,2.2,82,0.00,,,0.00,VWS V14.01,2013-06-25 08:10:00,
2013-06-25 04:15:00,69.1,63.4,29.95,WSW,253,0.0,3.6,82,0.00,,,0.00,VWS V14.01,2013-06-25 08:15:00,
2013-06-25 04:20:00,69.1,63.4,29.95,West,269,3.6,3.6,82,0.00,,,0.00,VWS V14.01,2013-06-25 08:20:00,
2013-06-25 04:21:00,69.1,63.4,29.95,WSW,253,3.1,3.6,82,0.00,,,0.00,VWS V14.01,2013-06-25 08:21:00,
2013-06-25 04:25:00,69.1,63.4,29.95,WSW,245,0.0,5.4,82,0.00,,,0.00,VWS V14.01,2013-06-25 08:25:00,
2013-06-25 04:26:00,69.1,63.4,29.95,West,267,2.7,3.6,82,0.00,,,0.00,VWS V14.01,2013-06-25 08:26:00,
2013-06-25 04:30:00,69.1,63.4,29.95,West,268,0.0,3.6,82,0.00,,,0.00,VWS V14.01,2013-06-25 08:30:00,
2013-06-25 04:31:00,69.1,63.4,29.95,West,268,0.0,0.0,82,0.00,,,0.00,VWS V14.01,2013-06-25 08:31:00,
2013-06-25 04:35:00,69.1,63.7,29.95,West,265,0.0,3.6,83,0.00,,,0.00,VWS V14.01,2013-06-25 08:35:00,
2013-06-25 04:36:00,69.1,63.7,29.95,West,265,0.0,0.0,83,0.00,,,0.00,VWS V14.01,2013-06-25 08:36:00,
2013-06-25 04:40:00,68.9,63.5,29.95,West,265,0.0,3.6,83,0.00,,,0.00,VWS V14.01,2013-06-25 08:40:00,
2013-06-25 04:41:00,68.9,63.5,29.95,West,265,0.0,0.0,83,0.00,,,0.00,VWS V14.01,2013-06-25 08:41:00,
2013-06-25 04:45:00,68.9,63.5,29.95,WSW,258,0.0,4.9,83,0.00,,,0.00,VWS V14.01,2013-06-25 08:45:00,
2013-06-25 04:46:00,68.9,63.5,29.95,WSW,245,0.0,2.7,83,0.00,,,0.00,VWS V14.01,2013-06-25 08:46:00,
2013-06-25 04:50:00,68.9,63.5,29.95,West,274,2.2,4.0,83,0.00,,,0.00,VWS V14.01,2013-06-25 08:50:00,
2013-06-25 04:51:00,68.9,63.5,29.95,West,274,0.0,2.2,83,0.00,,,0.00,VWS V14.01,2013-06-25 08:51:00,
2013-06-25 04:55:00,68.9,63.5,29.95,WSW,256,6.3,6.3,83,0.00,,,0.00,VWS V14.01,2013-06-25 08:55:00,
2013-06-25 04:56:00,68.9,63.5,29.95,West,259,2.2,6.3,83,0.00,,,0.00,VWS V14.01,2013-06-25 08:56:00,
2013-06-25 05:00:00,68.9,63.5,29.95,WSW,246,2.7,6.3,83,0.00,,,0.00,VWS V14.01,2013-06-25 09:00:00,
2013-06-25 05:01:00,68.9,63.5,29.95,SW,223,0.0,2.7,83,0.00,,,0.00,VWS V14.01,2013-06-25 09:01:00,
2013-06-25 05:05:00,68.9,63.5,29.95,West,270,2.7,3.1,83,0.00,,,0.00,VWS V14.01,2013-06-25 09:05:00,
2013-06-25 05:06:00,68.9,63.5,29.95,West,270,0.0,2.7,83,0.00,,,0.00,VWS V14.01,2013-06-25 09:06:00,
2013-06-25 05:10:00,68.9,63.5,29.95,West,261,0.0,2.7,83,0.00,,,0.00,VWS V14.01,2013-06-25 09:10:00,
2013-06-25 05:11:00,68.7,63.3,29.95,West,259,0.0,0.0,83,0.00,,,0.00,VWS V14.01,2013-06-25 09:11:00,
2013-06-25 05:15:00,68.7,63.7,29.95,West,270,2.7,3.6,84,0.00,,,0.00,VWS V14.01,2013-06-25 09:15:00,
2013-06-25 05:16:00,68.7,63.7,29.95,West,279,3.1,5.8,84,0.00,,,0.00,VWS V14.01,2013-06-25 09:16:00,
2013-06-25 05:20:00,68.9,63.9,29.95,WSW,254,2.2,5.8,84,0.00,,,0.00,VWS V14.01,2013-06-25 09:20:00,
2013-06-25 05:21:00,68.9,63.9,29.95,WSW,254,0.0,2.2,84,0.00,,,0.00,VWS V14.01,2013-06-25 09:21:00,
2013-06-25 05:25:00,68.7,63.7,29.95,WSW,253,0.0,4.9,84,0.00,,,0.00,VWS V14.01,2013-06-25 09:25:00,
2013-06-25 05:26:00,68.7,63.7,29.95,West,270,3.1,3.1,84,0.00,,,0.00,VWS V14.01,2013-06-25 09:26:00,
2013-06-25 05:30:00,68.7,63.7,29.95,West,260,0.0,3.1,84,0.00,,,0.00,VWS V14.01,2013-06-25 09:30:00,
2013-06-25 05:31:00,68.7,63.7,29.95,West,260,0.0,0.0,84,0.00,,,0.00,VWS V14.01,2013-06-25 09:31:00,
2013-06-25 05:35:00,68.5,63.5,29.95,West,266,0.0,2.7,84,0.00,,,0.00,VWS V14.01,2013-06-25 09:35:00,
2013-06-25 05:36:00,68.5,63.5,29.95,West,266,0.0,0.0,84,0.00,,,0.00,VWS V14.01,2013-06-25 09:36:00,
2013-06-25 05:40:00,68.5,63.5,29.95,West,266,0.0,0.0,84,0.00,,,0.00,VWS V14.01,2013-06-25 09:40:00,
2013-06-25 05:41:00,68.5,63.5,29.95,West,266,0.0,0.0,84,0.00,,,0.00,VWS V14.01,2013-06-25 09:41:00,
2013-06-25 05:45:00,68.4,63.7,29.95,West,266,0.0,0.0,85,0.00,,,0.00,VWS V14.01,2013-06-25 09:45:00,
2013-06-25 05:46:00,68.4,63.7,29.95,West,266,0.0,0.0,85,0.00,,,0.00,VWS V14.01,2013-06-25 09:46:00,
2013-06-25 05:50:00,68.4,63.7,29.95,West,266,0.0,0.0,85,0.00,,,0.00,VWS V14.01,2013-06-25 09:50:00,
2013-06-25 05:51:00,68.4,63.7,29.95,West,266,0.0,0.0,85,0.00,,,0.00,VWS V14.01,2013-06-25 09:51:00,
2013-06-25 05:55:00,68.4,63.7,29.95,West,266,0.0,0.0,85,0.00,,,0.00,VWS V14.01,2013-06-25 09:55:00,
2013-06-25 05:56:00,68.4,63.7,29.95,West,266,0.0,0.0,85,0.00,,,0.00,VWS V14.01,2013-06-25 09:56:00,
2013-06-25 06:00:00,68.2,63.5,29.95,West,266,0.0,0.0,85,0.00,,,0.00,VWS V14.01,2013-06-25 10:00:00,
2013-06-25 06:01:00,68.2,63.5,29.95,West,266,0.0,0.0,85,0.00,,,0.00,VWS V14.01,2013-06-25 10:01:00,
2013-06-25 06:05:00,68.2,63.5,29.95,West,266,0.0,0.0,85,0.00,,,0.00,VWS V14.01,2013-06-25 10:05:00,
2013-06-25 06:06:00,68.2,63.8,29.95,West,266,0.0,0.0,86,0.00,,,0.00,VWS V14.01,2013-06-25 10:06:00,
2013-06-25 06:10:00,68.2,63.8,29.95,West,266,0.0,0.0,86,0.00,,,0.00,VWS V14.01,2013-06-25 10:10:00,
2013-06-25 06:11:00,68.2,63.8,29.95,West,266,0.0,0.0,86,0.00,,,0.00,VWS V14.01,2013-06-25 10:11:00,
2013-06-25 06:15:00,68.2,63.8,29.95,West,266,0.0,0.0,86,0.00,,,0.00,VWS V14.01,2013-06-25 10:15:00,
2013-06-25 06:16:00,68.2,63.8,29.95,West,266,0.0,0.0,86,0.00,,,0.00,VWS V14.01,2013-06-25 10:16:00,
2013-06-25 06:20:00,68.2,63.8,29.95,West,266,0.0,0.0,86,0.00,,,0.00,VWS V14.01,2013-06-25 10:20:00,
2013-06-25 06:21:00,68.2,63.8,29.98,West,266,0.0,0.0,86,0.00,,,0.00,VWS V14.01,2013-06-25 10:21:00,
2013-06-25 06:25:00,68.2,63.8,29.98,West,266,0.0,0.0,86,0.00,,,0.00,VWS V14.01,2013-06-25 10:25:00,
2013-06-25 06:26:00,68.2,63.8,29.98,West,266,0.0,0.0,86,0.00,,,0.00,VWS V14.01,2013-06-25 10:26:00,
2013-06-25 06:30:00,68.4,64.0,29.98,West,266,0.0,0.0,86,0.00,,,0.00,VWS V14.01,2013-06-25 10:30:00,
2013-06-25 06:31:00,68.4,64.0,29.98,West,266,0.0,0.0,86,0.00,,,0.00,VWS V14.01,2013-06-25 10:31:00,
2013-06-25 06:35:00,68.5,64.5,29.98,West,266,0.0,0.0,87,0.00,,,0.00,VWS V14.01,2013-06-25 10:35:00,
2013-06-25 06:36:00,68.5,64.5,29.95,West,266,0.0,0.0,87,0.00,,,0.00,VWS V14.01,2013-06-25 10:36:00,
2013-06-25 06:40:00,68.7,64.7,29.95,West,266,0.0,0.0,87,0.00,,,0.00,VWS V14.01,2013-06-25 10:40:00,
2013-06-25 06:41:00,68.7,64.7,29.95,West,266,0.0,0.0,87,0.00,,,0.00,VWS V14.01,2013-06-25 10:41:00,
2013-06-25 06:45:00,68.7,64.7,29.95,West,267,0.0,0.0,87,0.00,,,0.00,VWS V14.01,2013-06-25 10:45:00,
2013-06-25 06:46:00,68.9,64.9,29.95,West,266,0.0,0.0,87,0.00,,,0.00,VWS V14.01,2013-06-25 10:46:00,
2013-06-25 06:50:00,68.9,64.9,29.95,West,266,0.0,0.0,87,0.00,,,0.00,VWS V14.01,2013-06-25 10:50:00,
2013-06-25 06:51:00,69.1,65.1,29.95,West,266,0.0,0.0,87,0.00,,,0.00,VWS V14.01,2013-06-25 10:51:00,
2013-06-25 06:55:00,69.3,65.2,29.95,West,266,0.0,0.0,87,0.00,,,0.00,VWS V14.01,2013-06-25 10:55:00,
2013-06-25 06:56:00,69.3,65.2,29.95,West,266,0.0,0.0,87,0.00,,,0.00,VWS V14.01,2013-06-25 10:56:00,
2013-06-25 07:00:00,69.4,65.4,29.95,West,262,0.0,0.0,87,0.00,,,0.00,VWS V14.01,2013-06-25 11:00:00,
2013-06-25 07:01:00,69.4,65.4,29.95,West,262,0.0,0.0,87,0.00,,,0.00,VWS V14.01,2013-06-25 11:01:00,
2013-06-25 07:05:00,69.8,65.4,29.95,West,261,0.0,0.0,86,0.00,,,0.00,VWS V14.01,2013-06-25 11:05:00,
2013-06-25 07:06:00,69.8,65.4,29.95,West,261,0.0,0.0,86,0.00,,,0.00,VWS V14.01,2013-06-25 11:06:00,
2013-06-25 07:10:00,70.0,65.6,29.95,West,261,0.0,0.0,86,0.00,,,0.00,VWS V14.01,2013-06-25 11:10:00,
2013-06-25 07:11:00,70.0,65.6,29.95,West,261,0.0,0.0,86,0.00,,,0.00,VWS V14.01,2013-06-25 11:11:00,
2013-06-25 07:15:00,70.2,65.8,29.95,West,259,0.0,3.1,86,0.00,,,0.00,VWS V14.01,2013-06-25 11:15:00,
2013-06-25 07:16:00,70.3,66.0,29.95,West,259,0.0,0.0,86,0.00,,,0.00,VWS V14.01,2013-06-25 11:16:00,
2013-06-25 07:20:00,70.9,66.5,29.95,West,259,0.0,0.0,86,0.00,,,0.00,VWS V14.01,2013-06-25 11:20:00,
2013-06-25 07:21:00,70.9,66.5,29.98,West,259,0.0,0.0,86,0.00,,,0.00,VWS V14.01,2013-06-25 11:21:00,
2013-06-25 07:25:00,71.2,66.5,29.98,West,259,0.0,0.0,85,0.00,,,0.00,VWS V14.01,2013-06-25 11:25:00,
2013-06-25 07:26:00,71.4,66.7,29.98,West,259,0.0,0.0,85,0.00,,,0.00,VWS V14.01,2013-06-25 11:26:00,
2013-06-25 07:30:00,71.4,66.7,29.98,West,259,0.0,0.0,85,0.00,,,0.00,VWS V14.01,2013-06-25 11:30:00,
2013-06-25 07:31:00,71.4,66.7,29.98,West,259,0.0,0.0,85,0.00,,,0.00,VWS V14.01,2013-06-25 11:31:00,
2013-06-25 07:35:00,71.6,66.9,29.98,West,259,0.0,0.0,85,0.00,,,0.00,VWS V14.01,2013-06-25 11:35:00,
2013-06-25 07:36:00,71.6,66.9,29.98,West,259,0.0,0.0,85,0.00,,,0.00,VWS V14.01,2013-06-25 11:36:00,
2013-06-25 07:40:00,71.8,66.7,29.98,West,259,0.0,0.0,84,0.00,,,0.00,VWS V14.01,2013-06-25 11:40:00,
2013-06-25 07:41:00,71.8,66.7,29.98,West,259,0.0,0.0,84,0.00,,,0.00,VWS V14.01,2013-06-25 11:41:00,
2013-06-25 07:45:00,72.0,66.9,29.98,West,259,0.0,0.0,84,0.00,,,0.00,VWS V14.01,2013-06-25 11:45:00,
2013-06-25 07:46:00,72.0,66.9,29.98,West,259,0.0,0.0,84,0.00,,,0.00,VWS V14.01,2013-06-25 11:46:00,
2013-06-25 07:50:00,72.3,66.9,29.98,West,259,0.0,3.6,83,0.00,,,0.00,VWS V14.01,2013-06-25 11:50:00,
2013-06-25 07:51:00,72.9,67.1,29.98,West,259,0.0,0.0,82,0.00,,,0.00,VWS V14.01,2013-06-25 11:51:00,
2013-06-25 07:55:00,73.8,67.6,29.98,WSW,243,0.0,4.0,81,0.00,,,0.00,VWS V14.01,2013-06-25 11:55:00,
2013-06-25 07:56:00,73.9,67.8,29.98,WSW,243,0.0,0.0,81,0.00,,,0.00,VWS V14.01,2013-06-25 11:56:00,
2013-06-25 08:00:00,74.5,67.9,29.98,WSW,258,3.1,5.4,80,0.00,,,0.00,VWS V14.01,2013-06-25 12:00:00,
2013-06-25 08:01:00,74.7,68.1,29.98,WSW,258,0.0,3.1,80,0.00,,,0.00,VWS V14.01,2013-06-25 12:01:00,
2013-06-25 08:05:00,75.0,67.7,29.98,WSW,245,0.0,5.4,78,0.00,,,0.00,VWS V14.01,2013-06-25 12:05:00,
2013-06-25 08:06:00,75.0,67.7,29.98,WSW,245,0.0,0.0,78,0.00,,,0.00,VWS V14.01,2013-06-25 12:06:00,
2013-06-25 08:10:00,74.8,67.2,29.98,SW,231,0.0,3.1,77,0.00,,,0.00,VWS V14.01,2013-06-25 12:10:00,
2013-06-25 08:11:00,74.7,67.0,29.98,SW,234,5.4,5.4,77,0.00,,,0.00,VWS V14.01,2013-06-25 12:11:00,
2013-06-25 08:15:00,74.5,66.4,29.98,West,272,4.9,5.4,76,0.00,,,0.00,VWS V14.01,2013-06-25 12:15:00,
2013-06-25 08:16:00,74.5,66.4,29.98,WSW,248,4.0,5.8,76,0.00,,,0.00,VWS V14.01,2013-06-25 12:16:00,
2013-06-25 08:20:00,75.0,66.9,29.98,WSW,248,0.0,5.8,76,0.00,,,0.00,VWS V14.01,2013-06-25 12:20:00,
2013-06-25 08:21:00,75.4,67.3,29.95,WSW,248,0.0,0.0,76,0.00,,,0.00,VWS V14.01,2013-06-25 12:21:00,
2013-06-25 08:25:00,75.9,67.8,29.95,WSW,248,0.0,0.0,76,0.00,,,0.00,VWS V14.01,2013-06-25 12:25:00,
2013-06-25 08:26:00,76.1,68.0,29.95,WSW,248,0.0,0.0,76,0.00,,,0.00,VWS V14.01,2013-06-25 12:26:00,
2013-06-25 08:30:00,76.3,68.2,29.95,WSW,253,0.0,0.0,76,0.00,,,0.00,VWS V14.01,2013-06-25 12:30:00,
2013-06-25 08:31:00,76.5,68.3,29.95,WSW,253,0.0,0.0,76,0.00,,,0.00,VWS V14.01,2013-06-25 12:31:00,
2013-06-25 08:35:00,76.5,68.0,29.95,WSW,252,0.0,0.0,75,0.00,,,0.00,VWS V14.01,2013-06-25 12:35:00,
2013-06-25 08:36:00,76.5,67.9,29.98,WSW,244,0.0,0.0,75,0.00,,,0.00,VWS V14.01,2013-06-25 12:36:00,
2013-06-25 08:40:00,76.1,66.8,29.98,WSW,239,4.0,4.0,73,0.00,,,0.00,VWS V14.01,2013-06-25 12:40:00,
2013-06-25 08:41:00,75.9,66.7,29.98,WSW,239,0.0,4.9,73,0.00,,,0.00,VWS V14.01,2013-06-25 12:41:00,
2013-06-25 08:45:00,75.9,66.2,29.98,WSW,250,0.0,5.8,72,0.00,,,0.00,VWS V14.01,2013-06-25 12:45:00,
2013-06-25 08:46:00,75.9,66.2,29.98,WNW,290,4.0,4.0,72,0.00,,,0.00,VWS V14.01,2013-06-25 12:46:00,
2013-06-25 08:50:00,75.7,66.1,29.98,WSW,250,5.8,5.8,72,0.00,,,0.00,VWS V14.01,2013-06-25 12:50:00,
2013-06-25 08:51:00,75.6,65.9,29.98,NW,308,2.7,5.8,72,0.00,,,0.00,VWS V14.01,2013-06-25 12:51:00,
2013-06-25 08:55:00,75.6,65.9,29.98,West,269,0.0,7.2,72,0.00,,,0.00,VWS V14.01,2013-06-25 12:55:00,
2013-06-25 08:56:00,75.6,65.9,29.98,West,259,3.1,3.1,72,0.00,,,0.00,VWS V14.01,2013-06-25 12:56:00,
2013-06-25 09:00:00,75.6,65.9,29.98,West,279,0.0,6.3,72,0.00,,,0.00,VWS V14.01,2013-06-25 13:00:00,
2013-06-25 09:01:00,75.6,66.3,29.98,WSW,247,3.1,4.0,73,0.00,,,0.00,VWS V14.01,2013-06-25 13:01:00,
2013-06-25 09:05:00,75.6,65.9,29.98,West,261,0.0,8.3,72,0.00,,,0.00,VWS V14.01,2013-06-25 13:05:00,
2013-06-25 09:06:00,75.6,66.3,29.98,West,261,0.0,0.0,73,0.00,,,0.00,VWS V14.01,2013-06-25 13:06:00,
2013-06-25 09:10:00,75.6,66.3,29.98,West,278,0.0,4.0,73,0.00,,,0.00,VWS V14.01,2013-06-25 13:10:00,
2013-06-25 09:11:00,75.6,66.3,29.98,West,278,0.0,0.0,73,0.00,,,0.00,VWS V14.01,2013-06-25 13:11:00,
2013-06-25 09:15:00,75.7,66.5,29.98,WSW,246,0.0,4.0,73,0.00,,,0.00,VWS V14.01,2013-06-25 13:15:00,
2013-06-25 09:16:00,75.9,66.7,29.98,WSW,246,0.0,0.0,73,0.00,,,0.00,VWS V14.01,2013-06-25 13:16:00,
2013-06-25 09:20:00,76.1,66.4,29.98,WSW,241,4.0,5.8,72,0.00,,,0.00,VWS V14.01,2013-06-25 13:20:00,
2013-06-25 09:21:00,76.1,66.4,29.98,WSW,255,6.3,6.3,72,0.00,,,0.00,VWS V14.01,2013-06-25 13:21:00,
2013-06-25 09:25:00,76.1,66.4,29.98,West,263,0.0,6.3,72,0.00,,,0.00,VWS V14.01,2013-06-25 13:25:00,
2013-06-25 09:26:00,76.1,66.4,29.98,SW,222,0.0,2.7,72,0.00,,,0.00,VWS V14.01,2013-06-25 13:26:00,
2013-06-25 09:30:00,76.3,66.6,29.98,SW,222,0.0,2.7,72,0.00,,,0.00,VWS V14.01,2013-06-25 13:30:00,
2013-06-25 09:31:00,76.3,66.6,29.98,West,261,4.0,7.6,72,0.00,,,0.00,VWS V14.01,2013-06-25 13:31:00,
2013-06-25 09:35:00,76.5,66.8,29.98,West,273,0.0,7.6,72,0.00,,,0.00,VWS V14.01,2013-06-25 13:35:00,
2013-06-25 09:36:00,76.5,66.8,29.95,West,276,2.7,3.6,72,0.00,,,0.00,VWS V14.01,2013-06-25 13:36:00,
2013-06-25 09:40:00,76.5,66.8,29.95,WNW,282,0.0,4.0,72,0.00,,,0.00,VWS V14.01,2013-06-25 13:40:00,
2013-06-25 09:41:00,76.6,66.9,29.95,WNW,282,0.0,0.0,72,0.00,,,0.00,VWS V14.01,2013-06-25 13:41:00,
2013-06-25 09:45:00,76.6,66.9,29.95,West,271,5.4,6.3,72,0.00,,,0.00,VWS V14.01,2013-06-25 13:45:00,
2013-06-25 09:46:00,76.8,67.1,29.95,West,260,0.0,5.4,72,0.00,,,0.00,VWS V14.01,2013-06-25 13:46:00,
2013-06-25 09:50:00,77.0,66.9,29.95,West,260,5.8,7.6,71,0.00,,,0.00,VWS V14.01,2013-06-25 13:50:00,
2013-06-25 09:51:00,77.2,67.1,29.95,WSW,244,0.0,5.8,71,0.00,,,0.00,VWS V14.01,2013-06-25 13:51:00,
2013-06-25 09:55:00,77.4,67.2,29.95,West,278,0.0,5.8,71,0.00,,,0.00,VWS V14.01,2013-06-25 13:55:00,
2013-06-25 09:56:00,77.5,67.4,29.95,West,278,0.0,2.2,71,0.00,,,0.00,VWS V14.01,2013-06-25 13:56:00,
2013-06-25 10:00:00,77.7,67.6,29.95,SW,232,2.2,4.0,71,0.00,,,0.00,VWS V14.01,2013-06-25 14:00:00,
2013-06-25 10:01:00,77.7,67.2,29.95,WSW,256,3.1,6.3,70,0.00,,,0.00,VWS V14.01,2013-06-25 14:01:00,
2013-06-25 10:05:00,77.9,67.8,29.95,WSW,256,0.0,6.3,71,0.00,,,0.00,VWS V14.01,2013-06-25 14:05:00,
2013-06-25 10:06:00,78.1,67.9,29.95,WSW,254,3.6,4.0,71,0.00,,,0.00,VWS V14.01,2013-06-25 14:06:00,
2013-06-25 10:10:00,78.3,67.3,29.95,WSW,254,0.0,4.0,69,0.00,,,0.00,VWS V14.01,2013-06-25 14:10:00,
2013-06-25 10:11:00,78.4,67.4,29.95,WSW,254,0.0,0.0,69,0.00,,,0.00,VWS V14.01,2013-06-25 14:11:00,
2013-06-25 10:15:00,78.6,67.6,29.95,WSW,257,7.6,7.6,69,0.00,,,0.00,VWS V14.01,2013-06-25 14:15:00,
2013-06-25 10:16:00,78.8,67.4,29.95,WSW,252,0.0,7.6,68,0.00,,,0.00,VWS V14.01,2013-06-25 14:16:00,
2013-06-25 10:20:00,79.2,68.1,29.95,West,268,4.9,7.6,69,0.00,,,0.00,VWS V14.01,2013-06-25 14:20:00,
2013-06-25 10:21:00,79.2,67.7,29.98,West,262,0.0,4.9,68,0.00,,,0.00,VWS V14.01,2013-06-25 14:21:00,
2013-06-25 10:25:00,79.2,67.7,29.98,WSW,243,3.1,5.4,68,0.00,,,0.00,VWS V14.01,2013-06-25 14:25:00,
2013-06-25 10:26:00,79.3,67.4,29.98,WSW,249,0.0,6.3,67,0.00,,,0.00,VWS V14.01,2013-06-25 14:26:00,
2013-06-25 10:30:00,79.3,67.4,29.98,WSW,249,0.0,6.3,67,0.00,,,0.00,VWS V14.01,2013-06-25 14:30:00,
2013-06-25 10:32:00,79.5,67.6,29.98,WSW,251,0.0,3.6,67,0.00,,,0.00,VWS V14.01,2013-06-25 14:32:00,
2013-06-25 10:35:00,80.1,68.6,29.98,South,176,0.0,4.0,68,0.00,,,0.00,VWS V14.01,2013-06-25 14:35:00,
2013-06-25 10:37:00,80.2,68.7,29.95,South,176,0.0,0.0,68,0.00,,,0.00,VWS V14.01,2013-06-25 14:37:00,
2013-06-25 10:40:00,80.8,68.4,29.95,WSW,248,2.7,5.8,66,0.00,,,0.00,VWS V14.01,2013-06-25 14:40:00,
2013-06-25 10:42:00,81.0,68.1,29.95,WNW,284,0.0,8.7,65,0.00,,,0.00,VWS V14.01,2013-06-25 14:42:00,
2013-06-25 10:45:00,81.3,68.0,29.95,West,260,8.1,10.5,64,0.00,,,0.00,VWS V14.01,2013-06-25 14:45:00,
2013-06-25 10:47:00,81.3,68.0,29.95,West,268,3.1,8.7,64,0.00,,,0.00,VWS V14.01,2013-06-25 14:47:00,
2013-06-25 10:50:00,81.5,67.7,29.95,West,272,3.6,8.7,63,0.00,,,0.00,VWS V14.01,2013-06-25 14:50:00,
2013-06-25 10:52:00,81.9,68.5,29.98,WSW,252,2.2,3.6,64,0.00,,,0.00,VWS V14.01,2013-06-25 14:52:00,
2013-06-25 10:55:00,81.9,67.6,29.98,WSW,237,0.0,5.8,62,0.00,,,0.00,VWS V14.01,2013-06-25 14:55:00,
2013-06-25 10:57:00,81.9,67.6,29.98,SW,235,5.4,6.3,62,0.00,,,0.00,VWS V14.01,2013-06-25 14:57:00,
2013-06-25 11:00:00,81.9,67.6,29.98,WSW,257,0.0,6.3,62,0.00,,,0.00,VWS V14.01,2013-06-25 15:00:00,
2013-06-25 11:02:00,81.9,67.1,29.98,SW,233,0.0,4.0,61,0.00,,,0.00,VWS V14.01,2013-06-25 15:02:00,
2013-06-25 11:05:00,82.0,67.3,29.98,WSW,237,0.0,5.8,61,0.00,,,0.00,VWS V14.01,2013-06-25 15:05:00,
2013-06-25 11:07:00,82.0,67.3,29.95,WSW,241,2.2,2.2,61,0.00,,,0.00,VWS V14.01,2013-06-25 15:07:00,
2013-06-25 11:10:00,82.2,67.9,29.95,West,259,3.6,4.0,62,0.00,,,0.00,VWS V14.01,2013-06-25 15:10:00,
2013-06-25 11:12:00,82.2,67.4,29.95,WSW,243,0.0,6.3,61,0.00,,,0.00,VWS V14.01,2013-06-25 15:12:00,
2013-06-25 11:15:00,82.2,67.4,29.95,SSW,196,3.1,6.3,61,0.00,,,0.00,VWS V14.01,2013-06-25 15:15:00,
2013-06-25 11:17:00,82.2,67.4,29.95,WSW,253,0.0,5.4,61,0.00,,,0.00,VWS V14.01,2013-06-25 15:17:00,
2013-06-25 11:20:00,82.4,67.1,29.95,West,270,4.0,7.6,60,0.00,,,0.00,VWS V14.01,2013-06-25 15:20:00,
2013-06-25 11:22:00,82.4,67.1,29.95,WSW,256,2.2,5.8,60,0.00,,,0.00,VWS V14.01,2013-06-25 15:22:00,
2013-06-25 11:25:00,82.6,67.3,29.95,SSW,212,0.0,5.8,60,0.00,,,0.00,VWS V14.01,2013-06-25 15:25:00,
2013-06-25 11:27:00,82.6,66.8,29.95,West,263,4.0,5.4,59,0.00,,,0.00,VWS V14.01,2013-06-25 15:27:00,
2013-06-25 11:30:00,82.9,66.2,29.95,SW,217,0.0,6.3,57,0.00,,,0.00,VWS V14.01,2013-06-25 15:30:00,
2013-06-25 11:32:00,82.9,66.2,29.95,WSW,251,0.0,4.9,57,0.00,,,0.00,VWS V14.01,2013-06-25 15:32:00,
2013-06-25 11:35:00,83.1,66.3,29.95,West,275,8.3,8.3,57,0.00,,,0.00,VWS V14.01,2013-06-25 15:35:00,
2013-06-25 11:37:00,83.1,66.3,29.95,WSW,254,4.0,8.3,57,0.00,,,0.00,VWS V14.01,2013-06-25 15:37:00,
2013-06-25 11:40:00,83.3,66.5,29.95,WSW,255,0.0,8.3,57,0.00,,,0.00,VWS V14.01,2013-06-25 15:40:00,
2013-06-25 11:42:00,83.3,67.0,29.95,West,277,8.3,8.3,58,0.00,,,0.00,VWS V14.01,2013-06-25 15:42:00,
2013-06-25 11:45:00,83.5,65.6,29.95,WSW,252,0.0,8.3,55,0.00,,,0.00,VWS V14.01,2013-06-25 15:45:00,
2013-06-25 11:47:00,83.7,66.3,29.95,West,267,3.1,3.1,56,0.00,,,0.00,VWS V14.01,2013-06-25 15:47:00,
2013-06-25 11:50:00,83.7,65.8,29.95,West,274,0.0,5.8,55,0.00,,,0.00,VWS V14.01,2013-06-25 15:50:00,
2013-06-25 11:52:00,84.0,66.7,29.95,SW,228,4.0,5.8,56,0.00,,,0.00,VWS V14.01,2013-06-25 15:52:00,
2013-06-25 11:55:00,84.2,66.3,29.95,WSW,237,3.1,5.8,55,0.00,,,0.00,VWS V14.01,2013-06-25 15:55:00,
2013-06-25 11:57:00,84.4,66.5,29.95,West,265,5.4,5.4,55,0.00,,,0.00,VWS V14.01,2013-06-25 15:57:00,
2013-06-25 12:00:00,84.6,65.6,29.95,WSW,240,0.0,7.6,53,0.00,,,0.00,VWS V14.01,2013-06-25 16:00:00,
2013-06-25 12:02:00,84.6,65.6,29.95,SW,217,0.0,4.0,53,0.00,,,0.00,VWS V14.01,2013-06-25 16:02:00,
2013-06-25 12:05:00,84.6,65.6,29.95,West,265,0.0,4.0,53,0.00,,,0.00,VWS V14.01,2013-06-25 16:05:00,
2013-06-25 12:07:00,84.7,65.7,29.95,WSW,250,3.6,8.7,53,0.00,,,0.00,VWS V14.01,2013-06-25 16:07:00,
2013-06-25 12:10:00,84.9,65.9,29.95,West,267,0.0,8.7,53,0.00,,,0.00,VWS V14.01,2013-06-25 16:10:00,
2013-06-25 12:12:00,85.3,66.2,29.95,West,279,3.1,7.2,53,0.00,,,0.00,VWS V14.01,2013-06-25 16:12:00,
2013-06-25 12:15:00,85.5,65.8,29.95,WSW,249,5.4,8.1,52,0.00,,,0.00,VWS V14.01,2013-06-25 16:15:00,
2013-06-25 12:17:00,85.5,65.8,29.95,WSW,243,0.0,8.3,52,0.00,,,0.00,VWS V14.01,2013-06-25 16:17:00,
2013-06-25 12:20:00,85.8,66.7,29.95,SSW,193,4.0,8.3,53,0.00,,,0.00,VWS V14.01,2013-06-25 16:20:00,
2013-06-25 12:22:00,85.8,65.1,29.95,SW,214,4.0,7.2,50,0.00,,,0.00,VWS V14.01,2013-06-25 16:22:00,
2013-06-25 12:25:00,85.8,65.1,29.95,West,276,2.2,7.2,50,0.00,,,0.00,VWS V14.01,2013-06-25 16:25:00,
2013-06-25 12:27:00,86.0,64.6,29.95,West,274,4.9,7.6,49,0.00,,,0.00,VWS V14.01,2013-06-25 16:27:00,
2013-06-25 12:30:00,86.2,64.8,29.95,SW,230,3.1,7.6,49,0.00,,,0.00,VWS V14.01,2013-06-25 16:30:00,
2013-06-25 12:32:00,86.4,65.0,29.95,West,266,3.6,8.3,49,0.00,,,0.00,VWS V14.01,2013-06-25 16:32:00,
2013-06-25 12:35:00,86.4,65.0,29.95,SW,232,0.0,8.3,49,0.00,,,0.00,VWS V14.01,2013-06-25 16:35:00,
2013-06-25 12:37:00,86.5,65.1,29.95,NW,310,0.0,2.2,49,0.00,,,0.00,VWS V14.01,2013-06-25 16:37:00,
2013-06-25 12:40:00,86.9,66.0,29.95,SSW,211,0.0,2.2,50,0.00,,,0.00,VWS V14.01,2013-06-25 16:40:00,
2013-06-25 12:42:00,87.1,66.2,29.95,SSW,192,0.0,3.1,50,0.00,,,0.00,VWS V14.01,2013-06-25 16:42:00,
2013-06-25 12:45:00,87.3,65.8,29.95,SW,235,2.2,5.8,49,0.00,,,0.00,VWS V14.01,2013-06-25 16:45:00,
2013-06-25 12:47:00,87.3,66.4,29.95,WSW,249,2.2,4.0,50,0.00,,,0.00,VWS V14.01,2013-06-25 16:47:00,
2013-06-25 12:50:00,87.4,65.9,29.95,South,188,3.6,4.0,49,0.00,,,0.00,VWS V14.01,2013-06-25 16:50:00,
2013-06-25 12:52:00,87.1,65.0,29.92,WNW,285,0.0,5.4,48,0.00,,,0.00,VWS V14.01,2013-06-25 16:52:00,
2013-06-25 12:55:00,87.1,65.0,29.92,WSW,238,2.2,5.4,48,0.00,,,0.00,VWS V14.01,2013-06-25 16:55:00,
2013-06-25 12:57:00,87.6,64.9,29.92,SSW,193,3.6,4.9,47,0.00,,,0.00,VWS V14.01,2013-06-25 16:57:00,
2013-06-25 13:00:00,87.4,64.1,29.92,WNW,294,3.6,7.6,46,0.00,,,0.00,VWS V14.01,2013-06-25 17:00:00,
2013-06-25 13:02:00,87.8,64.5,29.92,South,172,4.9,5.8,46,0.00,,,0.00,VWS V14.01,2013-06-25 17:02:00,
2013-06-25 13:05:00,88.2,64.8,29.92,SSW,195,3.1,6.3,46,0.00,,,0.00,VWS V14.01,2013-06-25 17:05:00,
2013-06-25 13:07:00,88.7,65.3,29.92,WSW,242,0.0,5.4,46,0.00,,,0.00,VWS V14.01,2013-06-25 17:07:00,
2013-06-25 13:10:00,89.1,65.6,29.92,WSW,253,0.0,5.4,46,0.00,,,0.00,VWS V14.01,2013-06-25 17:10:00,
2013-06-25 13:12:00,89.6,66.1,29.92,WSW,240,3.1,3.1,46,0.00,,,0.00,VWS V14.01,2013-06-25 17:12:00,
2013-06-25 13:15:00,89.8,65.0,29.92,South,188,3.1,6.3,44,0.00,,,0.00,VWS V14.01,2013-06-25 17:15:00,
2013-06-25 13:17:00,90.3,65.5,29.92,SW,222,2.2,5.8,44,0.00,,,0.00,VWS V14.01,2013-06-25 17:17:00,
2013-06-25 13:20:00,90.5,65.0,29.92,South,171,3.6,6.3,43,0.00,,,0.00,VWS V14.01,2013-06-25 17:20:00,
2013-06-25 13:22:00,90.5,65.0,29.92,SW,227,3.1,7.2,43,0.00,,,0.00,VWS V14.01,2013-06-25 17:22:00,
2013-06-25 13:25:00,90.9,65.3,29.92,WSW,249,2.2,7.2,43,0.00,,,0.00,VWS V14.01,2013-06-25 17:25:00,
2013-06-25 13:27:00,91.6,65.9,29.92,SW,220,8.3,9.2,43,0.00,,,0.00,VWS V14.01,2013-06-25 17:27:00,
2013-06-25 13:30:00,91.4,65.8,29.92,South,182,0.0,9.2,43,0.00,,,0.00,VWS V14.01,2013-06-25 17:30:00,
2013-06-25 13:32:00,92.1,66.4,29.92,SSW,198,5.8,6.7,43,0.00,,,0.00,VWS V14.01,2013-06-25 17:32:00,
2013-06-25 13:35:00,92.3,65.9,29.92,WSW,239,4.9,6.7,42,0.00,,,0.00,VWS V14.01,2013-06-25 17:35:00,
2013-06-25 13:38:00,92.3,65.9,29.92,WSW,239,2.2,5.4,42,0.00,,,0.00,VWS V14.01,2013-06-25 17:38:00,
2013-06-25 13:40:00,92.1,65.8,29.92,South,189,3.6,5.4,42,0.00,,,0.00,VWS V14.01,2013-06-25 17:40:00,
2013-06-25 13:43:00,91.0,64.8,29.92,South,185,4.0,5.4,42,0.00,,,0.00,VWS V14.01,2013-06-25 17:43:00,
2013-06-25 13:45:00,90.1,64.0,29.92,South,181,2.2,5.4,42,0.00,,,0.00,VWS V14.01,2013-06-25 17:45:00,
2013-06-25 13:48:00,90.5,65.0,29.92,SSW,213,2.7,7.6,43,0.00,,,0.00,VWS V14.01,2013-06-25 17:48:00,
2013-06-25 13:50:00,90.0,64.5,29.92,SE,136,3.1,7.6,43,0.00,,,0.00,VWS V14.01,2013-06-25 17:50:00,
2013-06-25 13:53:00,90.1,64.7,29.92,SSW,213,0.0,6.3,43,0.00,,,0.00,VWS V14.01,2013-06-25 17:53:00,
2013-06-25 13:55:00,89.8,65.0,29.92,South,179,3.6,6.3,44,0.00,,,0.00,VWS V14.01,2013-06-25 17:55:00,
2013-06-25 13:58:00,89.1,64.3,29.92,SSE,166,4.0,5.8,44,0.00,,,0.00,VWS V14.01,2013-06-25 17:58:00,
2013-06-25 14:00:00,88.5,64.5,29.92,South,183,5.4,5.8,45,0.00,,,0.00,VWS V14.01,2013-06-25 18:00:00,
2013-06-25 14:03:00,88.0,64.0,29.92,West,263,3.1,5.4,45,0.00,,,0.00,VWS V14.01,2013-06-25 18:03:00,
2013-06-25 14:05:00,87.6,64.3,29.92,SW,231,3.1,8.3,46,0.00,,,0.00,VWS V14.01,2013-06-25 18:05:00,
2013-06-25 14:08:00,87.8,64.5,29.92,WSW,239,2.7,5.8,46,0.00,,,0.00,VWS V14.01,2013-06-25 18:08:00,
2013-06-25 14:10:00,87.6,64.9,29.92,SW,215,0.0,5.8,47,0.00,,,0.00,VWS V14.01,2013-06-25 18:10:00,
2013-06-25 14:13:00,87.3,64.6,29.92,NW,326,0.0,3.6,47,0.00,,,0.00,VWS V14.01,2013-06-25 18:13:00,
2013-06-25 14:15:00,86.9,64.9,29.92,SW,229,3.1,4.9,48,0.00,,,0.00,VWS V14.01,2013-06-25 18:15:00,
2013-06-25 14:18:00,86.4,64.4,29.92,SW,220,0.0,5.4,48,0.00,,,0.00,VWS V14.01,2013-06-25 18:18:00,
2013-06-25 14:20:00,86.2,64.2,29.92,SW,229,0.0,5.4,48,0.00,,,0.00,VWS V14.01,2013-06-25 18:20:00,
2013-06-25 14:23:00,85.6,64.3,29.92,SW,233,2.2,4.9,49,0.00,,,0.00,VWS V14.01,2013-06-25 18:23:00,
2013-06-25 14:25:00,85.1,64.4,29.92,SW,223,2.7,5.8,50,0.00,,,0.00,VWS V14.01,2013-06-25 18:25:00,
2013-06-25 14:28:00,84.4,64.8,29.92,West,276,0.0,4.0,52,0.00,,,0.00,VWS V14.01,2013-06-25 18:28:00,
2013-06-25 14:30:00,83.8,64.9,29.92,West,270,4.0,4.9,53,0.00,,,0.00,VWS V14.01,2013-06-25 18:30:00,
2013-06-25 14:33:00,83.1,65.3,29.92,West,270,0.0,4.0,55,0.00,,,0.00,VWS V14.01,2013-06-25 18:33:00,
2013-06-25 14:35:00,82.9,66.2,29.92,WSW,251,5.4,5.4,57,0.00,,,0.00,VWS V14.01,2013-06-25 18:35:00,
2013-06-25 14:38:00,82.8,66.5,29.92,WSW,242,4.0,5.4,58,0.00,,,0.00,VWS V14.01,2013-06-25 18:38:00,
2013-06-25 14:40:00,83.3,67.0,29.92,WSW,249,2.2,5.8,58,0.00,,,0.00,VWS V14.01,2013-06-25 18:40:00,
2013-06-25 14:43:00,84.2,68.3,29.92,WSW,258,3.6,4.0,59,0.00,,,0.00,VWS V14.01,2013-06-25 18:43:00,
2013-06-25 14:45:00,84.7,68.8,29.92,SW,226,0.0,4.0,59,0.00,,,0.00,VWS V14.01,2013-06-25 18:45:00,
2013-06-25 14:48:00,85.6,69.7,29.92,SW,229,0.0,2.7,59,0.00,,,0.00,VWS V14.01,2013-06-25 18:48:00,
2013-06-25 14:50:00,86.0,69.5,29.92,SW,229,0.0,2.7,58,0.00,,,0.00,VWS V14.01,2013-06-25 18:50:00,
2013-06-25 14:53:00,87.1,70.5,29.89,SW,229,0.0,0.0,58,0.00,,,0.00,VWS V14.01,2013-06-25 18:53:00,
2013-06-25 14:55:00,87.4,70.9,29.89,South,191,2.2,3.6,58,0.00,,,0.00,VWS V14.01,2013-06-25 18:55:00,
2013-06-25 14:58:00,88.0,70.3,29.89,SSW,203,0.0,3.6,56,0.00,,,0.00,VWS V14.01,2013-06-25 18:58:00,
2013-06-25 15:00:00,88.3,69.6,29.89,SSW,203,0.0,3.6,54,0.00,,,0.00,VWS V14.01,2013-06-25 19:00:00,
2013-06-25 15:03:00,87.4,68.8,29.89,WNW,301,0.0,2.7,54,0.00,,,0.00,VWS V14.01,2013-06-25 19:03:00,
2013-06-25 15:05:00,87.1,69.0,29.89,West,275,0.0,5.8,55,0.00,,,0.00,VWS V14.01,2013-06-25 19:05:00,
2013-06-25 15:08:00,86.4,68.3,29.89,WNW,283,0.0,3.1,55,0.00,,,0.00,VWS V14.01,2013-06-25 19:08:00,
2013-06-25 15:10:00,86.2,68.1,29.89,WNW,284,4.0,4.9,55,0.00,,,0.00,VWS V14.01,2013-06-25 19:10:00,
2013-06-25 15:13:00,85.5,68.0,29.89,WNW,285,0.0,4.0,56,0.00,,,0.00,VWS V14.01,2013-06-25 19:13:00,
2013-06-25 15:15:00,85.3,67.8,29.89,WNW,285,0.0,4.0,56,0.00,,,0.00,VWS V14.01,2013-06-25 19:15:00,
2013-06-25 15:18:00,84.7,67.3,29.89,SW,236,0.0,2.2,56,0.00,,,0.00,VWS V14.01,2013-06-25 19:18:00,
2013-06-25 15:20:00,84.7,67.3,29.89,SW,236,0.0,2.2,56,0.00,,,0.00,VWS V14.01,2013-06-25 19:20:00,
2013-06-25 15:23:00,84.2,66.8,29.89,WSW,249,0.0,5.8,56,0.00,,,0.00,VWS V14.01,2013-06-25 19:23:00,
2013-06-25 15:25:00,84.0,67.2,29.89,West,272,4.0,5.8,57,0.00,,,0.00,VWS V14.01,2013-06-25 19:25:00,
2013-06-25 15:28:00,83.5,66.7,29.89,WNW,299,2.7,4.0,57,0.00,,,0.00,VWS V14.01,2013-06-25 19:28:00,
2013-06-25 15:30:00,83.3,67.0,29.89,West,262,0.0,4.0,58,0.00,,,0.00,VWS V14.01,2013-06-25 19:30:00,
2013-06-25 15:33:00,82.8,67.0,29.89,West,278,2.7,7.6,59,0.00,,,0.00,VWS V14.01,2013-06-25 19:33:00,
2013-06-25 15:35:00,82.6,66.8,29.89,West,278,4.9,7.6,59,0.00,,,0.00,VWS V14.01,2013-06-25 19:35:00,
2013-06-25 15:38:00,81.7,66.9,29.89,West,265,2.7,5.4,61,0.00,,,0.00,VWS V14.01,2013-06-25 19:38:00,
2013-06-25 15:40:00,81.5,66.8,29.89,West,268,2.7,5.4,61,0.00,,,0.00,VWS V14.01,2013-06-25 19:40:00,
2013-06-25 15:44:00,81.3,67.1,29.89,WSW,238,2.7,3.6,62,0.00,,,0.00,VWS V14.01,2013-06-25 19:44:00,
2013-06-25 15:45:00,81.1,67.8,29.89,WSW,238,2.7,3.6,64,0.00,,,0.00,VWS V14.01,2013-06-25 19:45:00,
2013-06-25 15:49:00,80.8,67.9,29.89,SW,218,2.7,5.4,65,0.00,,,0.00,VWS V14.01,2013-06-25 19:49:00,
2013-06-25 15:50:00,80.4,68.0,29.89,SW,216,3.6,5.4,66,0.00,,,0.00,VWS V14.01,2013-06-25 19:50:00,
2013-06-25 15:54:00,79.9,67.5,29.92,South,187,4.9,6.7,66,0.00,,,0.00,VWS V14.01,2013-06-25 19:54:00,
2013-06-25 15:55:00,79.7,67.3,29.92,SSW,203,4.0,6.7,66,0.00,,,0.00,VWS V14.01,2013-06-25 19:55:00,
2013-06-25 15:59:00,79.0,66.7,29.92,WSW,245,2.2,6.7,66,0.00,,,0.00,VWS V14.01,2013-06-25 19:59:00,
2013-06-25 16:00:00,78.8,66.1,29.92,South,169,2.2,7.6,65,0.00,,,0.00,VWS V14.01,2013-06-25 20:00:00,
2013-06-25 16:04:00,78.4,66.2,29.92,WNW,290,0.0,5.4,66,0.00,,,0.00,VWS V14.01,2013-06-25 20:04:00,
2013-06-25 16:05:00,78.4,66.2,29.92,WNW,301,5.4,6.7,66,0.00,,,0.00,VWS V14.01,2013-06-25 20:05:00,
2013-06-25 16:09:00,78.3,66.0,29.89,West,259,0.0,5.8,66,0.00,,,0.00,VWS V14.01,2013-06-25 20:09:00,
2013-06-25 16:10:00,78.3,66.0,29.89,West,259,0.0,5.8,66,0.00,,,0.00,VWS V14.01,2013-06-25 20:10:00,
2013-06-25 16:14:00,78.4,66.6,29.89,WSW,241,0.0,0.0,67,0.00,,,0.00,VWS V14.01,2013-06-25 20:14:00,
2013-06-25 16:15:00,78.4,66.6,29.89,WSW,241,0.0,0.0,67,0.00,,,0.00,VWS V14.01,2013-06-25 20:15:00,
2013-06-25 16:19:00,78.4,66.6,29.89,South,186,0.0,3.1,67,0.00,,,0.00,VWS V14.01,2013-06-25 20:19:00,
2013-06-25 16:20:00,78.4,66.6,29.89,South,186,3.1,3.1,67,0.00,,,0.00,VWS V14.01,2013-06-25 20:20:00,
2013-06-25 16:24:00,79.0,67.1,29.89,South,186,0.0,3.1,67,0.00,,,0.00,VWS V14.01,2013-06-25 20:24:00,
2013-06-25 16:25:00,79.2,67.3,29.89,South,186,0.0,3.1,67,0.00,,,0.00,VWS V14.01,2013-06-25 20:25:00,
2013-06-25 16:29:00,79.7,67.8,29.89,South,186,0.0,0.0,67,0.00,,,0.00,VWS V14.01,2013-06-25 20:29:00,
2013-06-25 16:30:00,79.7,67.8,29.89,South,188,0.0,0.0,67,0.00,,,0.00,VWS V14.01,2013-06-25 20:30:00,
2013-06-25 16:34:00,80.1,67.7,29.89,South,186,0.0,3.6,66,0.00,,,0.00,VWS V14.01,2013-06-25 20:34:00,
2013-06-25 16:35:00,80.1,67.7,29.89,South,186,0.0,3.6,66,0.00,,,0.00,VWS V14.01,2013-06-25 20:35:00,
2013-06-25 16:39:00,81.0,68.1,29.89,WSW,256,0.0,2.7,65,0.00,,,0.00,VWS V14.01,2013-06-25 20:39:00,
2013-06-25 16:40:00,81.1,68.7,29.89,West,269,2.7,4.0,66,0.00,,,0.00,VWS V14.01,2013-06-25 20:40:00,
2013-06-25 16:44:00,82.2,69.3,29.89,WSW,242,0.0,2.7,65,0.00,,,0.00,VWS V14.01,2013-06-25 20:44:00,
2013-06-25 16:45:00,82.2,69.3,29.89,WNW,287,4.0,4.0,65,0.00,,,0.00,VWS V14.01,2013-06-25 20:45:00,
2013-06-25 16:49:00,82.8,68.4,29.89,WSW,238,0.0,4.0,62,0.00,,,0.00,VWS V14.01,2013-06-25 20:49:00,
2013-06-25 16:50:00,82.8,68.4,29.89,WSW,242,0.0,4.0,62,0.00,,,0.00,VWS V14.01,2013-06-25 20:50:00,
2013-06-25 16:54:00,82.4,67.6,29.86,West,266,0.0,4.9,61,0.00,,,0.00,VWS V14.01,2013-06-25 20:54:00,
2013-06-25 16:55:00,82.2,67.9,29.86,West,266,0.0,4.9,62,0.00,,,0.00,VWS V14.01,2013-06-25 20:55:00,
2013-06-25 16:59:00,82.6,68.7,29.86,West,266,0.0,0.0,63,0.00,,,0.00,VWS V14.01,2013-06-25 20:59:00,
2013-06-25 17:00:00,82.6,68.7,29.86,WSW,257,0.0,0.0,63,0.00,,,0.00,VWS V14.01,2013-06-25 21:00:00,
2013-06-25 17:04:00,83.1,68.3,29.86,SW,222,3.1,4.0,61,0.00,,,0.00,VWS V14.01,2013-06-25 21:04:00,
2013-06-25 17:05:00,83.1,68.3,29.86,WNW,289,4.0,4.0,61,0.00,,,0.00,VWS V14.01,2013-06-25 21:05:00,
2013-06-25 17:09:00,83.3,68.5,29.86,WSW,253,2.7,4.0,61,0.00,,,0.00,VWS V14.01,2013-06-25 21:09:00,
2013-06-25 17:10:00,83.3,68.5,29.86,WSW,247,2.7,4.0,61,0.00,,,0.00,VWS V14.01,2013-06-25 21:10:00,
2013-06-25 17:14:00,83.5,68.6,29.86,South,180,5.4,5.4,61,0.00,,,0.00,VWS V14.01,2013-06-25 21:14:00,
2013-06-25 17:15:00,83.5,68.6,29.86,South,180,5.4,5.4,61,0.00,,,0.00,VWS V14.01,2013-06-25 21:15:00,
2013-06-25 17:19:00,83.3,68.5,29.86,South,183,3.6,5.4,61,0.00,,,0.00,VWS V14.01,2013-06-25 21:19:00,
2013-06-25 17:20:00,83.3,68.5,29.86,South,183,4.0,5.4,61,0.00,,,0.00,VWS V14.01,2013-06-25 21:20:00,
2013-06-25 17:24:00,83.3,68.9,29.86,SW,226,3.1,4.0,62,0.00,,,0.00,VWS V14.01,2013-06-25 21:24:00,
2013-06-25 17:25:00,83.3,68.9,29.86,SW,226,2.2,4.0,62,0.00,,,0.00,VWS V14.01,2013-06-25 21:25:00,
2013-06-25 17:30:00,83.1,67.8,29.86,SSW,211,0.0,13.2,60,0.00,,,0.00,VWS V14.01,2013-06-25 21:30:00,
2013-06-25 17:35:00,82.9,68.1,29.86,WSW,240,8.1,8.7,61,0.00,,,0.00,VWS V14.01,2013-06-25 21:35:00,
2013-06-25 17:40:00,82.9,68.1,29.86,WSW,252,2.7,8.7,61,0.00,,,0.00,VWS V14.01,2013-06-25 21:40:00,
2013-06-25 17:45:00,82.9,68.1,29.86,West,273,0.0,5.8,61,0.00,,,0.00,VWS V14.01,2013-06-25 21:45:00,
2013-06-25 17:50:00,82.9,68.6,29.86,WNW,286,2.7,8.3,62,0.00,,,0.00,VWS V14.01,2013-06-25 21:50:00,
2013-06-25 17:55:00,82.9,68.1,29.83,WSW,256,4.0,6.3,61,0.00,,,0.00,VWS V14.01,2013-06-25 21:55:00,
2013-06-25 18:00:00,82.9,67.6,29.83,West,259,2.7,8.7,60,0.00,,,0.00,VWS V14.01,2013-06-25 22:00:00,
2013-06-25 18:05:00,82.8,66.5,29.83,West,267,5.8,5.8,58,0.00,,,0.00,VWS V14.01,2013-06-25 22:05:00,
2013-06-25 18:10:00,82.8,66.0,29.83,WSW,237,8.3,8.3,57,0.00,,,0.00,VWS V14.01,2013-06-25 22:10:00,
2013-06-25 18:15:00,82.6,65.8,29.83,WSW,258,3.1,3.1,57,0.00,,,0.00,VWS V14.01,2013-06-25 22:15:00,
2013-06-25 18:20:00,82.2,64.5,29.83,SW,224,6.3,6.3,55,0.00,,,0.00,VWS V14.01,2013-06-25 22:20:00,
2013-06-25 18:25:00,81.9,63.6,29.83,WSW,238,5.4,12.8,54,0.00,,,0.00,VWS V14.01,2013-06-25 22:25:00,
2013-06-25 18:30:00,81.9,63.6,29.83,WSW,249,3.1,3.1,54,0.00,,,0.00,VWS V14.01,2013-06-25 22:30:00,
2013-06-25 18:35:00,81.7,64.0,29.83,SW,233,2.7,2.7,55,0.00,,,0.00,VWS V14.01,2013-06-25 22:35:00,
2013-06-25 18:40:00,81.3,63.6,29.83,WNW,303,2.7,4.0,55,0.00,,,0.00,VWS V14.01,2013-06-25 22:40:00,
2013-06-25 18:45:00,81.1,63.5,29.83,SW,229,2.7,3.6,55,0.00,,,0.00,VWS V14.01,2013-06-25 22:45:00,
2013-06-25 18:50:00,80.8,63.1,29.83,West,265,0.0,0.0,55,0.00,,,0.00,VWS V14.01,2013-06-25 22:50:00,
2013-06-25 18:55:00,80.4,63.3,29.83,West,264,0.0,3.1,56,0.00,,,0.00,VWS V14.01,2013-06-25 22:55:00,
2013-06-25 19:00:00,80.2,63.1,29.83,SW,231,2.7,2.7,56,0.00,,,0.00,VWS V14.01,2013-06-25 23:00:00,
2013-06-25 19:05:00,80.2,63.1,29.86,West,269,2.7,2.7,56,0.00,,,0.00,VWS V14.01,2013-06-25 23:05:00,
2013-06-25 19:10:00,79.9,63.3,29.86,West,264,3.1,5.4,57,0.00,,,0.00,VWS V14.01,2013-06-25 23:10:00,
2013-06-25 19:15:00,79.9,63.3,29.86,West,273,0.0,2.2,57,0.00,,,0.00,VWS V14.01,2013-06-25 23:15:00,
2013-06-25 19:20:00,79.7,63.1,29.86,West,265,0.0,4.0,57,0.00,,,0.00,VWS V14.01,2013-06-25 23:20:00,
2013-06-25 19:25:00,79.5,63.5,29.86,SW,218,2.7,6.3,58,0.00,,,0.00,VWS V14.01,2013-06-25 23:25:00,
2013-06-25 19:26:00,79.5,63.5,29.86,West,267,5.8,7.6,58,0.00,,,0.00,VWS V14.01,2013-06-25 23:26:00,
2013-06-25 19:30:00,79.5,63.5,29.86,West,270,0.0,7.6,58,0.00,,,0.00,VWS V14.01,2013-06-25 23:30:00,
2013-06-25 19:31:00,79.3,63.3,29.86,West,270,2.2,2.7,58,0.00,,,0.00,VWS V14.01,2013-06-25 23:31:00,
2013-06-25 19:35:00,79.3,63.8,29.86,West,263,5.4,5.4,59,0.00,,,0.00,VWS V14.01,2013-06-25 23:35:00,
2013-06-25 19:36:00,79.3,63.8,29.86,West,269,0.0,8.3,59,0.00,,,0.00,VWS V14.01,2013-06-25 23:36:00,
2013-06-25 19:40:00,79.2,63.6,29.86,West,261,0.0,8.3,59,0.00,,,0.00,VWS V14.01,2013-06-25 23:40:00,
2013-06-25 19:41:00,79.0,63.4,29.86,West,270,2.7,4.9,59,0.00,,,0.00,VWS V14.01,2013-06-25 23:41:00,
2013-06-25 19:45:00,78.8,63.3,29.86,WSW,257,0.0,4.9,59,0.00,,,0.00,VWS V14.01,2013-06-25 23:45:00,
2013-06-25 19:46:00,78.8,63.3,29.86,West,261,3.1,3.6,59,0.00,,,0.00,VWS V14.01,2013-06-25 23:46:00,
2013-06-25 19:50:00,78.6,63.6,29.86,West,263,2.2,6.3,60,0.00,,,0.00,VWS V14.01,2013-06-25 23:50:00,
2013-06-25 19:51:00,78.6,63.6,29.86,West,267,5.4,5.4,60,0.00,,,0.00,VWS V14.01,2013-06-25 23:51:00,
2013-06-25 19:55:00,78.6,63.6,29.86,SW,235,2.7,5.4,60,0.00,,,0.00,VWS V14.01,2013-06-25 23:55:00,
2013-06-25 19:56:00,78.6,63.6,29.86,West,270,3.6,4.0,60,0.00,,,0.00,VWS V14.01,2013-06-25 23:56:00,
2013-06-25 20:00:00,78.4,63.4,29.86,SW,221,0.0,6.7,60,0.00,,,0.00,VWS V14.01,2013-06-26 00:00:00,
2013-06-25 20:01:00,78.4,63.4,29.86,SW,234,0.0,5.4,60,0.00,,,0.00,VWS V14.01,2013-06-26 00:01:00,
2013-06-25 20:05:00,78.3,63.2,29.86,West,274,6.3,6.3,60,0.00,,,0.00,VWS V14.01,2013-06-26 00:05:00,
2013-06-25 20:06:00,78.3,63.2,29.86,SW,235,3.1,7.6,60,0.00,,,0.00,VWS V14.01,2013-06-26 00:06:00,
2013-06-25 20:10:00,78.3,63.2,29.86,West,262,2.2,7.6,60,0.00,,,0.00,VWS V14.01,2013-06-26 00:10:00,
2013-06-25 20:11:00,78.3,63.2,29.86,West,263,0.0,3.1,60,0.00,,,0.00,VWS V14.01,2013-06-26 00:11:00,
2013-06-25 20:15:00,78.1,63.5,29.86,WSW,252,0.0,6.3,61,0.00,,,0.00,VWS V14.01,2013-06-26 00:15:00,
2013-06-25 20:16:00,78.1,63.5,29.86,WSW,256,0.0,0.0,61,0.00,,,0.00,VWS V14.01,2013-06-26 00:16:00,
2013-06-25 20:20:00,77.9,63.4,29.86,West,279,0.0,4.0,61,0.00,,,0.00,VWS V14.01,2013-06-26 00:20:00,
2013-06-25 20:21:00,77.9,63.4,29.86,West,276,2.2,2.2,61,0.00,,,0.00,VWS V14.01,2013-06-26 00:21:00,
2013-06-25 20:25:00,77.7,63.7,29.86,WSW,249,2.2,4.0,62,0.00,,,0.00,VWS V14.01,2013-06-26 00:25:00,
2013-06-25 20:26:00,77.5,63.5,29.86,West,275,3.1,3.6,62,0.00,,,0.00,VWS V14.01,2013-06-26 00:26:00,
2013-06-25 20:30:00,77.5,63.5,29.86,WSW,258,0.0,4.0,62,0.00,,,0.00,VWS V14.01,2013-06-26 00:30:00,
2013-06-25 20:31:00,77.4,63.3,29.86,WSW,258,0.0,0.0,62,0.00,,,0.00,VWS V14.01,2013-06-26 00:31:00,
2013-06-25 20:35:00,77.4,63.3,29.86,WSW,247,0.0,3.6,62,0.00,,,0.00,VWS V14.01,2013-06-26 00:35:00,
2013-06-25 20:36:00,77.2,63.2,29.86,WSW,247,0.0,0.0,62,0.00,,,0.00,VWS V14.01,2013-06-26 00:36:00,
2013-06-25 20:40:00,77.2,63.2,29.86,WSW,247,0.0,0.0,62,0.00,,,0.00,VWS V14.01,2013-06-26 00:40:00,
2013-06-25 20:41:00,77.0,63.0,29.86,WSW,250,0.0,2.7,62,0.00,,,0.00,VWS V14.01,2013-06-26 00:41:00,
2013-06-25 20:45:00,77.0,63.5,29.86,West,264,0.0,3.1,63,0.00,,,0.00,VWS V14.01,2013-06-26 00:45:00,
2013-06-25 20:46:00,77.0,63.5,29.86,West,259,4.0,4.0,63,0.00,,,0.00,VWS V14.01,2013-06-26 00:46:00,
2013-06-25 20:50:00,76.8,63.3,29.86,WSW,257,0.0,4.0,63,0.00,,,0.00,VWS V14.01,2013-06-26 00:50:00,
2013-06-25 20:51:00,76.8,63.3,29.86,West,274,2.2,5.8,63,0.00,,,0.00,VWS V14.01,2013-06-26 00:51:00,
2013-06-25 20:55:00,76.8,63.3,29.86,WNW,288,0.0,5.8,63,0.00,,,0.00,VWS V14.01,2013-06-26 00:55:00,
2013-06-25 20:56:00,76.8,63.3,29.86,WNW,283,3.1,3.1,63,0.00,,,0.00,VWS V14.01,2013-06-26 00:56:00,
2013-06-25 21:00:00,76.8,63.3,29.86,West,273,0.0,4.0,63,0.00,,,0.00,VWS V14.01,2013-06-26 01:00:00,
2013-06-25 21:01:00,76.8,63.3,29.86,West,273,0.0,0.0,63,0.00,,,0.00,VWS V14.01,2013-06-26 01:01:00,
2013-06-25 21:05:00,76.6,63.6,29.86,West,273,0.0,0.0,64,0.00,,,0.00,VWS V14.01,2013-06-26 01:05:00,
2013-06-25 21:06:00,76.6,63.6,29.86,West,272,0.0,0.0,64,0.00,,,0.00,VWS V14.01,2013-06-26 01:06:00,
2013-06-25 21:10:00,76.5,63.4,29.86,West,273,0.0,0.0,64,0.00,,,0.00,VWS V14.01,2013-06-26 01:10:00,
2013-06-25 21:11:00,76.5,63.4,29.86,West,273,0.0,0.0,64,0.00,,,0.00,VWS V14.01,2013-06-26 01:11:00,
2013-06-25 21:15:00,76.3,63.7,29.86,West,273,0.0,0.0,65,0.00,,,0.00,VWS V14.01,2013-06-26 01:15:00,
2013-06-25 21:16:00,76.3,63.7,29.86,West,273,0.0,0.0,65,0.00,,,0.00,VWS V14.01,2013-06-26 01:16:00,
2013-06-25 21:20:00,76.1,63.5,29.86,West,273,0.0,0.0,65,0.00,,,0.00,VWS V14.01,2013-06-26 01:20:00,
2013-06-25 21:21:00,76.1,63.5,29.86,West,273,0.0,0.0,65,0.00,,,0.00,VWS V14.01,2013-06-26 01:21:00,
2013-06-25 21:25:00,75.9,63.8,29.86,West,273,0.0,0.0,66,0.00,,,0.00,VWS V14.01,2013-06-26 01:25:00,
2013-06-25 21:26:00,75.9,63.8,29.86,West,273,0.0,0.0,66,0.00,,,0.00,VWS V14.01,2013-06-26 01:26:00,
2013-06-25 21:30:00,75.9,63.8,29.86,West,273,0.0,0.0,66,0.00,,,0.00,VWS V14.01,2013-06-26 01:30:00,
2013-06-25 21:31:00,75.7,63.6,29.86,West,273,0.0,0.0,66,0.00,,,0.00,VWS V14.01,2013-06-26 01:31:00,
2013-06-25 21:35:00,75.7,63.6,29.86,West,273,0.0,0.0,66,0.00,,,0.00,VWS V14.01,2013-06-26 01:35:00,
2013-06-25 21:36:00,75.7,63.6,29.86,West,273,0.0,0.0,66,0.00,,,0.00,VWS V14.01,2013-06-26 01:36:00,
2013-06-25 21:40:00,75.4,63.7,29.86,West,273,0.0,0.0,67,0.00,,,0.00,VWS V14.01,2013-06-26 01:40:00,
2013-06-25 21:41:00,75.4,63.7,29.86,West,273,0.0,0.0,67,0.00,,,0.00,VWS V14.01,2013-06-26 01:41:00,
2013-06-25 21:45:00,75.2,63.5,29.86,West,273,0.0,0.0,67,0.00,,,0.00,VWS V14.01,2013-06-26 01:45:00,
2013-06-25 21:46:00,75.2,63.9,29.86,West,273,0.0,0.0,68,0.00,,,0.00,VWS V14.01,2013-06-26 01:46:00,
2013-06-25 21:50:00,75.0,64.2,29.86,West,273,0.0,0.0,69,0.00,,,0.00,VWS V14.01,2013-06-26 01:50:00,
2013-06-25 21:51:00,75.0,64.2,29.86,West,273,0.0,0.0,69,0.00,,,0.00,VWS V14.01,2013-06-26 01:51:00,
2013-06-25 21:55:00,75.0,64.2,29.86,West,273,0.0,0.0,69,0.00,,,0.00,VWS V14.01,2013-06-26 01:55:00,
2013-06-25 21:56:00,74.8,64.0,29.86,West,273,0.0,0.0,69,0.00,,,0.00,VWS V14.01,2013-06-26 01:56:00,
2013-06-25 22:00:00,74.8,64.0,29.86,West,273,0.0,0.0,69,0.00,,,0.00,VWS V14.01,2013-06-26 02:00:00,
2013-06-25 22:01:00,74.8,64.0,29.86,West,273,0.0,0.0,69,0.00,,,0.00,VWS V14.01,2013-06-26 02:01:00,
2013-06-25 22:05:00,74.7,63.8,29.86,West,273,0.0,0.0,69,0.00,,,0.00,VWS V14.01,2013-06-26 02:05:00,
2013-06-25 22:06:00,74.5,64.1,29.86,West,273,0.0,0.0,70,0.00,,,0.00,VWS V14.01,2013-06-26 02:06:00,
2013-06-25 22:10:00,74.5,64.1,29.86,West,273,0.0,0.0,70,0.00,,,0.00,VWS V14.01,2013-06-26 02:10:00,
2013-06-25 22:11:00,74.5,64.1,29.86,West,273,0.0,0.0,70,0.00,,,0.00,VWS V14.01,2013-06-26 02:11:00,
2013-06-25 22:15:00,74.1,63.7,29.86,West,273,0.0,0.0,70,0.00,,,0.00,VWS V14.01,2013-06-26 02:15:00,
2013-06-25 22:16:00,74.1,63.7,29.86,West,273,0.0,0.0,70,0.00,,,0.00,VWS V14.01,2013-06-26 02:16:00,
2013-06-25 22:20:00,74.1,63.7,29.86,West,273,0.0,0.0,70,0.00,,,0.00,VWS V14.01,2013-06-26 02:20:00,
2013-06-25 22:21:00,74.1,64.1,29.86,West,273,0.0,0.0,71,0.00,,,0.00,VWS V14.01,2013-06-26 02:21:00,
2013-06-25 22:25:00,74.1,64.1,29.86,West,259,5.8,5.8,71,0.00,,,0.00,VWS V14.01,2013-06-26 02:25:00,
2013-06-25 22:26:00,74.3,64.3,29.86,SSE,158,6.3,6.3,71,0.00,,,0.00,VWS V14.01,2013-06-26 02:26:00,
2013-06-25 22:30:00,74.7,64.6,29.86,West,266,4.0,15.0,71,0.00,,,0.00,VWS V14.01,2013-06-26 02:30:00,
2013-06-25 22:31:00,74.3,64.3,29.86,West,262,3.1,6.3,71,0.00,,,0.00,VWS V14.01,2013-06-26 02:31:00,
2013-06-25 22:35:00,73.8,64.2,29.86,SSW,212,2.2,11.9,72,0.00,,,0.00,VWS V14.01,2013-06-26 02:35:00,
2013-06-25 22:37:00,73.4,64.2,29.89,WSW,248,2.7,2.7,73,0.00,,,0.00,VWS V14.01,2013-06-26 02:37:00,
2013-06-25 22:40:00,73.0,64.3,29.89,SW,229,0.0,5.4,74,0.04,,,0.04,VWS V14.01,2013-06-26 02:40:00,
2013-06-25 22:42:00,72.3,64.0,29.89,SW,229,0.0,0.0,75,0.04,,,0.04,VWS V14.01,2013-06-26 02:42:00,
2013-06-25 22:45:00,72.0,64.4,29.89,SW,229,0.0,0.0,77,0.08,,,0.08,VWS V14.01,2013-06-26 02:45:00,
2013-06-25 22:47:00,71.8,64.6,29.89,SW,229,0.0,0.0,78,0.08,,,0.08,VWS V14.01,2013-06-26 02:47:00,
2013-06-25 22:50:00,71.8,64.6,29.89,SW,229,0.0,0.0,78,0.08,,,0.08,VWS V14.01,2013-06-26 02:50:00,
2013-06-25 22:52:00,71.8,64.9,29.86,SW,229,0.0,0.0,79,0.08,,,0.08,VWS V14.01,2013-06-26 02:52:00,
2013-06-25 22:55:00,71.8,64.9,29.86,SW,229,0.0,0.0,79,0.08,,,0.08,VWS V14.01,2013-06-26 02:55:00,
2013-06-25 22:57:00,71.8,65.3,29.86,SW,229,0.0,0.0,80,0.08,,,0.08,VWS V14.01,2013-06-26 02:57:00,
2013-06-25 23:00:00,71.8,65.3,29.86,SW,229,0.0,0.0,80,0.08,,,0.08,VWS V14.01,2013-06-26 03:00:00,
2013-06-25 23:02:00,71.8,65.6,29.86,SW,229,0.0,0.0,81,0.08,,,0.08,VWS V14.01,2013-06-26 03:02:00,
2013-06-25 23:05:00,71.8,65.6,29.86,SW,229,0.0,2.2,81,0.08,,,0.08,VWS V14.01,2013-06-26 03:05:00,
2013-06-25 23:07:00,71.6,65.5,29.86,SW,229,0.0,0.0,81,0.08,,,0.08,VWS V14.01,2013-06-26 03:07:00,
2013-06-25 23:10:00,71.6,65.5,29.86,SW,230,0.0,3.1,81,0.12,,,0.12,VWS V14.01,2013-06-26 03:10:00,
2013-06-25 23:12:00,71.6,65.8,29.86,SW,230,0.0,0.0,82,0.12,,,0.12,VWS V14.01,2013-06-26 03:12:00,
2013-06-25 23:15:00,71.4,66.0,29.86,SW,230,0.0,0.0,83,0.12,,,0.12,VWS V14.01,2013-06-26 03:15:00,
2013-06-25 23:17:00,71.4,66.0,29.86,SW,230,0.0,0.0,83,0.12,,,0.12,VWS V14.01,2013-06-26 03:17:00,
2013-06-25 23:20:00,71.6,66.2,29.86,SW,230,0.0,0.0,83,0.12,,,0.12,VWS V14.01,2013-06-26 03:20:00,
2013-06-25 23:22:00,71.6,66.5,29.83,SW,230,0.0,0.0,84,0.12,,,0.12,VWS V14.01,2013-06-26 03:22:00,
2013-06-25 23:25:00,71.6,66.5,29.83,SW,230,0.0,0.0,84,0.12,,,0.12,VWS V14.01,2013-06-26 03:25:00,
2013-06-25 23:27:00,71.6,66.5,29.83,SW,230,0.0,0.0,84,0.16,,,0.16,VWS V14.01,2013-06-26 03:27:00,
2013-06-25 23:30:00,71.6,66.9,29.83,SW,230,0.0,0.0,85,0.16,,,0.16,VWS V14.01,2013-06-26 03:30:00,
2013-06-25 23:32:00,71.4,66.7,29.83,SW,230,0.0,0.0,85,0.16,,,0.16,VWS V14.01,2013-06-26 03:32:00,
2013-06-25 23:35:00,71.4,66.7,29.83,SW,230,0.0,0.0,85,0.16,,,0.16,VWS V14.01,2013-06-26 03:35:00,
2013-06-25 23:37:00,71.4,67.0,29.83,SW,230,0.0,2.7,86,0.16,,,0.16,VWS V14.01,2013-06-26 03:37:00,
2013-06-25 23:40:00,71.4,67.0,29.83,SW,230,0.0,2.7,86,0.16,,,0.16,VWS V14.01,2013-06-26 03:40:00,
2013-06-25 23:42:00,71.4,67.0,29.83,SW,230,0.0,0.0,86,0.12,,,0.16,VWS V14.01,2013-06-26 03:42:00,
2013-06-25 23:45:00,71.4,67.3,29.83,SW,230,0.0,0.0,87,0.12,,,0.16,VWS V14.01,2013-06-26 03:45:00,
2013-06-25 23:47:00,71.2,67.2,29.83,SW,230,0.0,0.0,87,0.08,,,0.16,VWS V14.01,2013-06-26 03:47:00,
2013-06-25 23:50:00,71.2,67.2,29.83,SW,230,0.0,0.0,87,0.08,,,0.16,VWS V14.01,2013-06-26 03:50:00,
2013-06-25 23:52:00,71.2,67.2,29.83,SW,230,0.0,0.0,87,0.08,,,0.16,VWS V14.01,2013-06-26 03:52:00,
2013-06-25 23:55:00,71.1,67.0,29.83,SW,230,0.0,0.0,87,0.08,,,0.16,VWS V14.01,2013-06-26 03:55:00,
2013-06-25 23:57:00,71.1,67.0,29.83,SW,230,0.0,0.0,87,0.08,,,0.16,VWS V14.01,2013-06-26 03:57:00,